sensor_id;sensor_type;location;lat;lon;timestamp;temperature;humidity
12811;DHT22;6470;47.654;7.896;2023-08-31T00:02:10;16.20;99.90
12811;DHT22;6470;47.654;7.896;2023-08-31T00:04:36;15.90;99.90
12811;DHT22;6470;47.654;7.896;2023-08-31T00:07:02;11.30;99.90
12811;DHT22;6470;47.654;7.896;2023-08-31T00:09:28;15.90;99.90
12811;DHT22;6470;47.654;7.896;2023-08-31T00:14:24;15.60;99.90
12811;DHT22;6470;47.654;7.896;2023-08-31T00:16:50;15.70;99.90
12811;DHT22;6470;47.654;7.896;2023-08-31T00:19:16;15.70;99.90
12811;DHT22;6470;47.654;7.896;2023-08-31T00:21:42;15.60;99.90
12811;DHT22;6470;47.654;7.896;2023-08-31T00:24:08;15.60;99.90
12811;DHT22;6470;47.654;7.896;2023-08-31T00:26:35;15.70;99.90
12811;DHT22;6470;47.654;7.896;2023-08-31T00:29:06;15.60;99.90
12811;DHT22;6470;47.654;7.896;2023-08-31T00:31:32;11.30;99.90
12811;DHT22;6470;47.654;7.896;2023-08-31T00:33:59;15.70;99.90
12811;DHT22;6470;47.654;7.896;2023-08-31T00:36:28;15.60;99.90
12811;DHT22;6470;47.654;7.896;2023-08-31T00:38:54;15.60;99.90
12811;DHT22;6470;47.654;7.896;2023-08-31T00:41:21;11.20;99.90
12811;DHT22;6470;47.654;7.896;2023-08-31T00:43:47;15.20;99.90
12811;DHT22;6470;47.654;7.896;2023-08-31T00:46:14;15.40;99.90
12811;DHT22;6470;47.654;7.896;2023-08-31T00:48:40;15.40;99.90
12811;DHT22;6470;47.654;7.896;2023-08-31T00:51:07;16.00;99.90
12811;DHT22;6470;47.654;7.896;2023-08-31T00:53:34;15.20;99.90
12811;DHT22;6470;47.654;7.896;2023-08-31T00:56:01;15.60;99.90
12811;DHT22;6470;47.654;7.896;2023-08-31T00:58:27;15.10;99.90
12811;DHT22;6470;47.654;7.896;2023-08-31T01:01:27;16.10;99.90
12811;DHT22;6470;47.654;7.896;2023-08-31T01:04:16;15.70;99.90
12811;DHT22;6470;47.654;7.896;2023-08-31T01:12:44;14.00;99.90
12811;DHT22;6470;47.654;7.896;2023-08-31T01:15:13;13.90;99.90
12811;DHT22;6470;47.654;7.896;2023-08-31T01:17:46;11.20;99.90
12811;DHT22;6470;47.654;7.896;2023-08-31T01:20:17;13.90;99.90
12811;DHT22;6470;47.654;7.896;2023-08-31T01:23:04;13.80;99.90
12811;DHT22;6470;47.654;7.896;2023-08-31T01:25:32;15.60;99.90
12811;DHT22;6470;47.654;7.896;2023-08-31T01:27:59;15.20;99.90
12811;DHT22;6470;47.654;7.896;2023-08-31T01:30:25;15.10;99.90
12811;DHT22;6470;47.654;7.896;2023-08-31T01:32:54;15.30;99.90
12811;DHT22;6470;47.654;7.896;2023-08-31T01:35:21;15.20;99.90
12811;DHT22;6470;47.654;7.896;2023-08-31T01:37:51;13.80;99.90
12811;DHT22;6470;47.654;7.896;2023-08-31T01:40:51;13.90;99.90
12811;DHT22;6470;47.654;7.896;2023-08-31T01:43:21;15.50;99.90
12811;DHT22;6470;47.654;7.896;2023-08-31T01:45:48;15.80;99.90
12811;DHT22;6470;47.654;7.896;2023-08-31T01:48:14;15.20;99.90
12811;DHT22;6470;47.654;7.896;2023-08-31T01:50:40;15.40;99.90
12811;DHT22;6470;47.654;7.896;2023-08-31T01:53:06;14.00;99.90
12811;DHT22;6470;47.654;7.896;2023-08-31T01:55:32;15.40;99.90
12811;DHT22;6470;47.654;7.896;2023-08-31T01:57:58;15.40;99.90
12811;DHT22;6470;47.654;7.896;2023-08-31T02:00:25;15.60;99.90
12811;DHT22;6470;47.654;7.896;2023-08-31T02:02:51;15.30;99.90
12811;DHT22;6470;47.654;7.896;2023-08-31T02:05:17;15.60;99.90
12811;DHT22;6470;47.654;7.896;2023-08-31T02:07:42;13.70;99.90
12811;DHT22;6470;47.654;7.896;2023-08-31T02:10:08;15.80;99.90
12811;DHT22;6470;47.654;7.896;2023-08-31T02:12:34;15.80;99.90
12811;DHT22;6470;47.654;7.896;2023-08-31T02:15:06;13.60;99.90
12811;DHT22;6470;47.654;7.896;2023-08-31T02:17:35;15.70;99.90
12811;DHT22;6470;47.654;7.896;2023-08-31T02:20:01;15.00;99.90
12811;DHT22;6470;47.654;7.896;2023-08-31T02:22:31;15.50;99.90
12811;DHT22;6470;47.654;7.896;2023-08-31T02:24:57;16.10;99.90
12811;DHT22;6470;47.654;7.896;2023-08-31T02:27:22;15.70;99.90
12811;DHT22;6470;47.654;7.896;2023-08-31T02:29:48;15.30;99.90
12811;DHT22;6470;47.654;7.896;2023-08-31T02:32:14;16.20;99.90
12811;DHT22;6470;47.654;7.896;2023-08-31T02:34:39;10.50;99.90
12811;DHT22;6470;47.654;7.896;2023-08-31T02:37:05;15.90;99.90
12811;DHT22;6470;47.654;7.896;2023-08-31T02:39:31;13.50;99.90
12811;DHT22;6470;47.654;7.896;2023-08-31T02:41:56;13.60;99.90
12811;DHT22;6470;47.654;7.896;2023-08-31T02:44:22;15.10;99.90
12811;DHT22;6470;47.654;7.896;2023-08-31T02:46:48;15.00;99.90
12811;DHT22;6470;47.654;7.896;2023-08-31T02:49:13;15.40;99.90
12811;DHT22;6470;47.654;7.896;2023-08-31T02:51:39;15.00;99.90
12811;DHT22;6470;47.654;7.896;2023-08-31T02:54:05;15.60;99.90
12811;DHT22;6470;47.654;7.896;2023-08-31T02:56:30;14.80;99.90
12811;DHT22;6470;47.654;7.896;2023-08-31T02:58:56;15.50;99.90
12811;DHT22;6470;47.654;7.896;2023-08-31T03:01:22;15.30;99.90
12811;DHT22;6470;47.654;7.896;2023-08-31T03:03:48;15.60;99.90
12811;DHT22;6470;47.654;7.896;2023-08-31T03:06:14;13.50;99.90
12811;DHT22;6470;47.654;7.896;2023-08-31T03:08:41;15.60;99.90
12811;DHT22;6470;47.654;7.896;2023-08-31T03:11:06;15.30;99.90
12811;DHT22;6470;47.654;7.896;2023-08-31T03:13:33;15.10;99.90
12811;DHT22;6470;47.654;7.896;2023-08-31T03:16:00;16.00;99.90
12811;DHT22;6470;47.654;7.896;2023-08-31T03:18:26;15.50;99.90
12811;DHT22;6470;47.654;7.896;2023-08-31T03:20:52;15.50;99.90
12811;DHT22;6470;47.654;7.896;2023-08-31T03:23:17;10.80;99.90
12811;DHT22;6470;47.654;7.896;2023-08-31T03:25:43;15.50;99.90
12811;DHT22;6470;47.654;7.896;2023-08-31T03:28:09;15.60;99.90
12811;DHT22;6470;47.654;7.896;2023-08-31T03:30:35;15.00;99.90
12811;DHT22;6470;47.654;7.896;2023-08-31T03:33:01;15.60;99.90
12811;DHT22;6470;47.654;7.896;2023-08-31T03:35:27;15.80;99.90
12811;DHT22;6470;47.654;7.896;2023-08-31T03:37:54;15.70;99.90
12811;DHT22;6470;47.654;7.896;2023-08-31T03:40:20;15.30;99.90
12811;DHT22;6470;47.654;7.896;2023-08-31T03:42:46;15.00;99.90
12811;DHT22;6470;47.654;7.896;2023-08-31T03:45:12;15.00;99.90
12811;DHT22;6470;47.654;7.896;2023-08-31T03:47:38;15.70;99.90
12811;DHT22;6470;47.654;7.896;2023-08-31T03:50:05;13.10;99.90
12811;DHT22;6470;47.654;7.896;2023-08-31T03:52:30;15.30;99.90
12811;DHT22;6470;47.654;7.896;2023-08-31T03:54:56;15.90;99.90
12811;DHT22;6470;47.654;7.896;2023-08-31T03:57:22;15.40;99.90
12811;DHT22;6470;47.654;7.896;2023-08-31T03:59:48;14.40;99.90
12811;DHT22;6470;47.654;7.896;2023-08-31T04:02:13;14.80;99.90
12811;DHT22;6470;47.654;7.896;2023-08-31T04:04:39;15.60;99.90
12811;DHT22;6470;47.654;7.896;2023-08-31T04:07:05;15.60;99.90
12811;DHT22;6470;47.654;7.896;2023-08-31T04:09:32;15.70;99.90
12811;DHT22;6470;47.654;7.896;2023-08-31T04:11:57;15.80;99.90
12811;DHT22;6470;47.654;7.896;2023-08-31T04:14:25;13.10;99.90
12811;DHT22;6470;47.654;7.896;2023-08-31T04:16:51;15.30;99.90
12811;DHT22;6470;47.654;7.896;2023-08-31T04:19:17;13.10;99.90
12811;DHT22;6470;47.654;7.896;2023-08-31T04:21:43;14.90;99.90
12811;DHT22;6470;47.654;7.896;2023-08-31T04:24:09;15.30;99.90
12811;DHT22;6470;47.654;7.896;2023-08-31T04:26:35;15.30;99.90
12811;DHT22;6470;47.654;7.896;2023-08-31T04:29:02;13.00;99.90
12811;DHT22;6470;47.654;7.896;2023-08-31T04:31:28;15.60;99.90
12811;DHT22;6470;47.654;7.896;2023-08-31T04:33:54;12.90;99.90
12811;DHT22;6470;47.654;7.896;2023-08-31T04:36:21;15.10;99.90
12811;DHT22;6470;47.654;7.896;2023-08-31T04:38:48;15.90;99.90
12811;DHT22;6470;47.654;7.896;2023-08-31T04:41:14;15.30;99.90
12811;DHT22;6470;47.654;7.896;2023-08-31T04:43:41;13.10;99.90
12811;DHT22;6470;47.654;7.896;2023-08-31T04:46:06;10.60;99.90
12811;DHT22;6470;47.654;7.896;2023-08-31T04:48:32;15.00;99.90
12811;DHT22;6470;47.654;7.896;2023-08-31T04:50:58;15.60;99.90
12811;DHT22;6470;47.654;7.896;2023-08-31T04:53:24;15.20;99.90
12811;DHT22;6470;47.654;7.896;2023-08-31T04:58:17;13.00;99.90
12811;DHT22;6470;47.654;7.896;2023-08-31T05:00:42;14.70;99.90
12811;DHT22;6470;47.654;7.896;2023-08-31T05:05:36;15.70;99.90
12811;DHT22;6470;47.654;7.896;2023-08-31T05:08:02;15.60;99.90
12811;DHT22;6470;47.654;7.896;2023-08-31T05:10:28;10.20;99.90
12811;DHT22;6470;47.654;7.896;2023-08-31T05:12:54;15.60;99.90
12811;DHT22;6470;47.654;7.896;2023-08-31T05:15:20;14.90;99.90
12811;DHT22;6470;47.654;7.896;2023-08-31T05:17:46;13.10;99.90
12811;DHT22;6470;47.654;7.896;2023-08-31T05:20:13;15.60;99.90
12811;DHT22;6470;47.654;7.896;2023-08-31T05:22:38;16.10;99.90
12811;DHT22;6470;47.654;7.896;2023-08-31T05:25:04;15.50;99.90
12811;DHT22;6470;47.654;7.896;2023-08-31T05:27:30;15.30;99.90
12811;DHT22;6470;47.654;7.896;2023-08-31T05:29:56;15.20;99.90
12811;DHT22;6470;47.654;7.896;2023-08-31T05:32:21;15.10;99.90
12811;DHT22;6470;47.654;7.896;2023-08-31T05:37:13;15.20;99.90
12811;DHT22;6470;47.654;7.896;2023-08-31T05:39:39;13.40;99.90
12811;DHT22;6470;47.654;7.896;2023-08-31T05:42:05;15.50;99.90
12811;DHT22;6470;47.654;7.896;2023-08-31T05:44:31;15.80;99.90
12811;DHT22;6470;47.654;7.896;2023-08-31T05:46:57;15.20;99.90
12811;DHT22;6470;47.654;7.896;2023-08-31T05:49:23;15.60;99.90
12811;DHT22;6470;47.654;7.896;2023-08-31T05:51:49;13.50;99.90
12811;DHT22;6470;47.654;7.896;2023-08-31T05:54:15;15.30;99.90
12811;DHT22;6470;47.654;7.896;2023-08-31T05:56:40;15.40;99.90
12811;DHT22;6470;47.654;7.896;2023-08-31T05:59:06;13.60;99.90
12811;DHT22;6470;47.654;7.896;2023-08-31T06:01:34;15.30;99.90
12811;DHT22;6470;47.654;7.896;2023-08-31T06:06:26;13.60;99.90
12811;DHT22;6470;47.654;7.896;2023-08-31T06:08:51;15.60;99.90
12811;DHT22;6470;47.654;7.896;2023-08-31T06:11:19;13.80;99.90
12811;DHT22;6470;47.654;7.896;2023-08-31T06:13:44;16.20;99.90
12811;DHT22;6470;47.654;7.896;2023-08-31T06:16:10;15.70;99.90
12811;DHT22;6470;47.654;7.896;2023-08-31T06:21:02;15.30;99.90
12811;DHT22;6470;47.654;7.896;2023-08-31T06:23:28;15.10;99.90
12811;DHT22;6470;47.654;7.896;2023-08-31T06:28:19;16.20;99.90
12811;DHT22;6470;47.654;7.896;2023-08-31T06:30:45;13.80;99.90
12811;DHT22;6470;47.654;7.896;2023-08-31T06:33:14;15.40;99.90
12811;DHT22;6470;47.654;7.896;2023-08-31T06:38:06;15.60;99.90
12811;DHT22;6470;47.654;7.896;2023-08-31T06:40:32;15.50;99.90
12811;DHT22;6470;47.654;7.896;2023-08-31T06:42:58;15.40;99.90
12811;DHT22;6470;47.654;7.896;2023-08-31T06:45:25;16.00;99.90
12811;DHT22;6470;47.654;7.896;2023-08-31T06:47:50;15.70;99.90
12811;DHT22;6470;47.654;7.896;2023-08-31T06:50:16;15.60;99.90
12811;DHT22;6470;47.654;7.896;2023-08-31T06:52:42;15.20;99.90
12811;DHT22;6470;47.654;7.896;2023-08-31T06:57:36;15.30;99.90
12811;DHT22;6470;47.654;7.896;2023-08-31T07:00:03;15.20;99.90
12811;DHT22;6470;47.654;7.896;2023-08-31T07:09:47;15.50;99.90
12811;DHT22;6470;47.654;7.896;2023-08-31T07:12:16;15.30;99.90
12811;DHT22;6470;47.654;7.896;2023-08-31T07:14:42;16.00;99.90
12811;DHT22;6470;47.654;7.896;2023-08-31T07:17:08;15.80;99.90
12811;DHT22;6470;47.654;7.896;2023-08-31T07:19:37;14.80;99.90
12811;DHT22;6470;47.654;7.896;2023-08-31T07:22:03;15.90;99.90
12811;DHT22;6470;47.654;7.896;2023-08-31T07:24:29;15.80;99.90
12811;DHT22;6470;47.654;7.896;2023-08-31T07:26:55;15.00;99.90
12811;DHT22;6470;47.654;7.896;2023-08-31T07:29:21;15.00;99.90
12811;DHT22;6470;47.654;7.896;2023-08-31T07:31:47;15.20;99.90
12811;DHT22;6470;47.654;7.896;2023-08-31T07:34:13;15.20;99.90
12811;DHT22;6470;47.654;7.896;2023-08-31T07:36:38;15.80;99.90
12811;DHT22;6470;47.654;7.896;2023-08-31T07:39:05;15.70;99.90
12811;DHT22;6470;47.654;7.896;2023-08-31T07:41:31;16.40;99.90
12811;DHT22;6470;47.654;7.896;2023-08-31T07:43:56;16.40;99.90
12811;DHT22;6470;47.654;7.896;2023-08-31T07:46:22;17.00;99.90
12811;DHT22;6470;47.654;7.896;2023-08-31T07:48:55;16.40;99.90
12811;DHT22;6470;47.654;7.896;2023-08-31T07:51:21;15.50;99.90
12811;DHT22;6470;47.654;7.896;2023-08-31T07:53:49;16.60;99.90
12811;DHT22;6470;47.654;7.896;2023-08-31T07:56:14;16.40;99.90
12811;DHT22;6470;47.654;7.896;2023-08-31T07:58:40;16.60;99.90
12811;DHT22;6470;47.654;7.896;2023-08-31T08:01:06;16.80;99.90
12811;DHT22;6470;47.654;7.896;2023-08-31T08:03:31;16.50;99.90
12811;DHT22;6470;47.654;7.896;2023-08-31T08:05:57;17.00;99.90
12811;DHT22;6470;47.654;7.896;2023-08-31T08:08:23;16.60;99.90
12811;DHT22;6470;47.654;7.896;2023-08-31T08:10:52;13.70;99.90
12811;DHT22;6470;47.654;7.896;2023-08-31T08:13:18;15.90;99.90
12811;DHT22;6470;47.654;7.896;2023-08-31T08:15:45;16.40;99.90
12811;DHT22;6470;47.654;7.896;2023-08-31T08:18:11;16.40;99.90
12811;DHT22;6470;47.654;7.896;2023-08-31T08:20:37;16.70;99.90
12811;DHT22;6470;47.654;7.896;2023-08-31T08:23:02;16.60;99.90
12811;DHT22;6470;47.654;7.896;2023-08-31T08:25:28;17.10;99.90
12811;DHT22;6470;47.654;7.896;2023-08-31T08:27:54;16.80;99.90
12811;DHT22;6470;47.654;7.896;2023-08-31T08:30:19;17.20;99.90
12811;DHT22;6470;47.654;7.896;2023-08-31T08:32:45;16.60;99.90
12811;DHT22;6470;47.654;7.896;2023-08-31T08:35:11;14.80;99.90
12811;DHT22;6470;47.654;7.896;2023-08-31T08:37:37;16.50;99.90
12811;DHT22;6470;47.654;7.896;2023-08-31T08:40:03;17.20;99.90
12811;DHT22;6470;47.654;7.896;2023-08-31T08:42:33;16.30;99.90
12811;DHT22;6470;47.654;7.896;2023-08-31T08:45:05;16.50;99.90
12811;DHT22;6470;47.654;7.896;2023-08-31T08:50:00;17.60;99.90
12811;DHT22;6470;47.654;7.896;2023-08-31T08:54:53;17.30;99.90
12811;DHT22;6470;47.654;7.896;2023-08-31T08:57:20;17.50;99.90
12811;DHT22;6470;47.654;7.896;2023-08-31T08:59:46;17.80;99.90
12811;DHT22;6470;47.654;7.896;2023-08-31T09:02:11;17.40;99.90
12811;DHT22;6470;47.654;7.896;2023-08-31T09:04:38;16.90;99.90
12811;DHT22;6470;47.654;7.896;2023-08-31T09:07:04;16.60;99.90
12811;DHT22;6470;47.654;7.896;2023-08-31T09:09:29;16.70;99.90
12811;DHT22;6470;47.654;7.896;2023-08-31T09:11:55;17.00;99.90
12811;DHT22;6470;47.654;7.896;2023-08-31T09:16:49;14.90;99.90
12811;DHT22;6470;47.654;7.896;2023-08-31T09:19:19;16.60;99.90
12811;DHT22;6470;47.654;7.896;2023-08-31T09:21:46;17.40;99.90
12811;DHT22;6470;47.654;7.896;2023-08-31T09:24:12;17.50;99.90
12811;DHT22;6470;47.654;7.896;2023-08-31T09:26:39;17.50;99.90
12811;DHT22;6470;47.654;7.896;2023-08-31T09:29:06;17.80;99.90
12811;DHT22;6470;47.654;7.896;2023-08-31T09:31:32;18.10;99.90
12811;DHT22;6470;47.654;7.896;2023-08-31T09:33:58;18.10;99.90
12811;DHT22;6470;47.654;7.896;2023-08-31T09:36:24;17.70;99.90
12811;DHT22;6470;47.654;7.896;2023-08-31T09:38:49;15.80;99.90
12811;DHT22;6470;47.654;7.896;2023-08-31T09:41:15;18.40;99.90
12811;DHT22;6470;47.654;7.896;2023-08-31T09:43:42;18.70;99.90
12811;DHT22;6470;47.654;7.896;2023-08-31T09:46:08;17.90;99.90
12811;DHT22;6470;47.654;7.896;2023-08-31T09:51:04;17.70;99.90
12811;DHT22;6470;47.654;7.896;2023-08-31T09:53:31;17.50;99.90
12811;DHT22;6470;47.654;7.896;2023-08-31T09:55:57;17.30;99.90
12811;DHT22;6470;47.654;7.896;2023-08-31T09:58:23;17.80;99.90
12811;DHT22;6470;47.654;7.896;2023-08-31T10:00:51;18.20;99.90
12811;DHT22;6470;47.654;7.896;2023-08-31T10:03:17;17.90;99.90
12811;DHT22;6470;47.654;7.896;2023-08-31T10:05:44;16.90;99.90
12811;DHT22;6470;47.654;7.896;2023-08-31T10:08:11;17.10;99.90
12811;DHT22;6470;47.654;7.896;2023-08-31T10:10:38;17.80;99.90
12811;DHT22;6470;47.654;7.896;2023-08-31T10:13:05;18.10;99.90
12811;DHT22;6470;47.654;7.896;2023-08-31T10:15:35;17.40;99.90
12811;DHT22;6470;47.654;7.896;2023-08-31T10:18:02;17.00;99.90
12811;DHT22;6470;47.654;7.896;2023-08-31T10:20:29;17.70;99.90
12811;DHT22;6470;47.654;7.896;2023-08-31T10:23:06;17.80;99.90
12811;DHT22;6470;47.654;7.896;2023-08-31T10:28:23;18.30;99.90
12811;DHT22;6470;47.654;7.896;2023-08-31T10:31:09;18.70;99.90
12811;DHT22;6470;47.654;7.896;2023-08-31T10:34:02;18.50;99.90
12811;DHT22;6470;47.654;7.896;2023-08-31T10:36:44;18.70;99.90
12811;DHT22;6470;47.654;7.896;2023-08-31T10:39:18;18.60;99.90
12811;DHT22;6470;47.654;7.896;2023-08-31T10:41:57;18.40;99.90
12811;DHT22;6470;47.654;7.896;2023-08-31T10:44:27;19.40;99.90
12811;DHT22;6470;47.654;7.896;2023-08-31T10:47:00;18.60;99.90
12811;DHT22;6470;47.654;7.896;2023-08-31T10:49:28;18.20;99.90
12811;DHT22;6470;47.654;7.896;2023-08-31T10:51:56;18.10;99.90
12811;DHT22;6470;47.654;7.896;2023-08-31T10:54:40;15.90;99.90
12811;DHT22;6470;47.654;7.896;2023-08-31T10:57:06;19.10;99.90
12811;DHT22;6470;47.654;7.896;2023-08-31T10:59:49;15.90;99.90
12811;DHT22;6470;47.654;7.896;2023-08-31T11:05:08;18.40;99.90
12811;DHT22;6470;47.654;7.896;2023-08-31T11:07:35;18.30;99.90
12811;DHT22;6470;47.654;7.896;2023-08-31T11:10:20;18.50;99.90
12811;DHT22;6470;47.654;7.896;2023-08-31T11:12:48;18.60;99.90
12811;DHT22;6470;47.654;7.896;2023-08-31T11:15:18;18.10;99.90
12811;DHT22;6470;47.654;7.896;2023-08-31T11:17:45;19.00;99.90
12811;DHT22;6470;47.654;7.896;2023-08-31T11:20:16;19.50;99.90
12811;DHT22;6470;47.654;7.896;2023-08-31T11:22:43;18.20;99.90
12811;DHT22;6470;47.654;7.896;2023-08-31T11:25:11;18.80;99.90
12811;DHT22;6470;47.654;7.896;2023-08-31T11:27:37;18.60;99.90
12811;DHT22;6470;47.654;7.896;2023-08-31T11:30:16;18.30;99.90
12811;DHT22;6470;47.654;7.896;2023-08-31T11:32:47;19.20;99.90
12811;DHT22;6470;47.654;7.896;2023-08-31T11:35:14;19.10;99.90
12811;DHT22;6470;47.654;7.896;2023-08-31T11:37:42;19.00;99.90
12811;DHT22;6470;47.654;7.896;2023-08-31T11:40:08;19.00;99.90
12811;DHT22;6470;47.654;7.896;2023-08-31T11:42:34;18.90;99.90
12811;DHT22;6470;47.654;7.896;2023-08-31T11:45:00;17.80;99.90
12811;DHT22;6470;47.654;7.896;2023-08-31T11:47:26;18.60;99.90
12811;DHT22;6470;47.654;7.896;2023-08-31T11:49:52;18.50;99.90
12811;DHT22;6470;47.654;7.896;2023-08-31T11:52:18;18.70;99.90
12811;DHT22;6470;47.654;7.896;2023-08-31T11:54:44;19.00;99.90
12811;DHT22;6470;47.654;7.896;2023-08-31T11:57:11;19.10;99.90
12811;DHT22;6470;47.654;7.896;2023-08-31T11:59:38;19.40;99.90
12811;DHT22;6470;47.654;7.896;2023-08-31T12:02:08;19.50;99.90
12811;DHT22;6470;47.654;7.896;2023-08-31T12:04:42;19.50;99.90
12811;DHT22;6470;47.654;7.896;2023-08-31T12:07:09;19.70;99.90
12811;DHT22;6470;47.654;7.896;2023-08-31T12:09:35;19.80;99.90
12811;DHT22;6470;47.654;7.896;2023-08-31T12:12:01;19.50;99.90
12811;DHT22;6470;47.654;7.896;2023-08-31T12:14:29;19.90;99.90
12811;DHT22;6470;47.654;7.896;2023-08-31T12:17:04;20.00;99.90
12811;DHT22;6470;47.654;7.896;2023-08-31T12:19:31;20.50;99.90
12811;DHT22;6470;47.654;7.896;2023-08-31T12:21:58;20.00;99.90
12811;DHT22;6470;47.654;7.896;2023-08-31T12:24:24;19.10;99.90
12811;DHT22;6470;47.654;7.896;2023-08-31T12:26:50;19.40;99.90
12811;DHT22;6470;47.654;7.896;2023-08-31T12:29:17;19.10;99.90
12811;DHT22;6470;47.654;7.896;2023-08-31T12:31:42;19.70;99.90
12811;DHT22;6470;47.654;7.896;2023-08-31T12:34:09;20.00;99.90
12811;DHT22;6470;47.654;7.896;2023-08-31T12:36:35;20.10;99.90
12811;DHT22;6470;47.654;7.896;2023-08-31T12:39:07;20.00;99.90
12811;DHT22;6470;47.654;7.896;2023-08-31T12:41:38;20.00;99.90
12811;DHT22;6470;47.654;7.896;2023-08-31T12:44:05;20.10;99.90
12811;DHT22;6470;47.654;7.896;2023-08-31T12:46:31;20.00;99.90
12811;DHT22;6470;47.654;7.896;2023-08-31T12:48:57;20.30;99.90
12811;DHT22;6470;47.654;7.896;2023-08-31T12:51:23;21.70;99.90
12811;DHT22;6470;47.654;7.896;2023-08-31T12:53:49;20.70;99.90
12811;DHT22;6470;47.654;7.896;2023-08-31T12:56:14;21.20;99.90
12811;DHT22;6470;47.654;7.896;2023-08-31T12:58:53;20.70;99.90
12811;DHT22;6470;47.654;7.896;2023-08-31T13:01:20;20.00;99.90
12811;DHT22;6470;47.654;7.896;2023-08-31T13:03:47;21.40;99.90
12811;DHT22;6470;47.654;7.896;2023-08-31T13:06:13;21.50;99.90
12811;DHT22;6470;47.654;7.896;2023-08-31T13:08:39;21.70;99.90
12811;DHT22;6470;47.654;7.896;2023-08-31T13:11:05;22.20;99.90
12811;DHT22;6470;47.654;7.896;2023-08-31T13:13:32;21.10;99.90
12811;DHT22;6470;47.654;7.896;2023-08-31T13:15:58;21.60;99.90
12811;DHT22;6470;47.654;7.896;2023-08-31T13:18:24;21.50;99.90
12811;DHT22;6470;47.654;7.896;2023-08-31T13:23:16;20.80;99.90
12811;DHT22;6470;47.654;7.896;2023-08-31T13:25:42;21.00;99.90
12811;DHT22;6470;47.654;7.896;2023-08-31T13:28:08;20.80;99.90
12811;DHT22;6470;47.654;7.896;2023-08-31T13:30:33;21.10;99.90
12811;DHT22;6470;47.654;7.896;2023-08-31T13:32:59;21.10;99.90
12811;DHT22;6470;47.654;7.896;2023-08-31T13:35:25;21.20;99.90
12811;DHT22;6470;47.654;7.896;2023-08-31T13:37:51;20.90;99.90
12811;DHT22;6470;47.654;7.896;2023-08-31T13:40:16;20.90;99.90
12811;DHT22;6470;47.654;7.896;2023-08-31T13:43:02;21.10;99.90
12811;DHT22;6470;47.654;7.896;2023-08-31T13:45:29;20.90;99.90
12811;DHT22;6470;47.654;7.896;2023-08-31T13:47:56;20.70;99.90
12811;DHT22;6470;47.654;7.896;2023-08-31T13:50:23;20.60;99.90
12811;DHT22;6470;47.654;7.896;2023-08-31T13:52:48;21.00;99.90
12811;DHT22;6470;47.654;7.896;2023-08-31T13:55:14;20.90;99.90
12811;DHT22;6470;47.654;7.896;2023-08-31T13:57:41;20.70;99.90
12811;DHT22;6470;47.654;7.896;2023-08-31T14:00:08;20.70;99.90
12811;DHT22;6470;47.654;7.896;2023-08-31T14:02:35;20.70;99.90
12811;DHT22;6470;47.654;7.896;2023-08-31T14:05:02;20.90;99.90
12811;DHT22;6470;47.654;7.896;2023-08-31T14:09:53;20.70;99.90
12811;DHT22;6470;47.654;7.896;2023-08-31T14:12:19;20.80;99.90
12811;DHT22;6470;47.654;7.896;2023-08-31T14:14:45;17.60;99.90
12811;DHT22;6470;47.654;7.896;2023-08-31T14:17:12;20.60;99.90
12811;DHT22;6470;47.654;7.896;2023-08-31T14:19:38;20.90;99.90
12811;DHT22;6470;47.654;7.896;2023-08-31T14:22:04;20.60;99.90
12811;DHT22;6470;47.654;7.896;2023-08-31T14:24:30;20.60;99.90
12811;DHT22;6470;47.654;7.896;2023-08-31T14:26:56;20.90;99.90
12811;DHT22;6470;47.654;7.896;2023-08-31T14:29:23;20.40;99.90
12811;DHT22;6470;47.654;7.896;2023-08-31T14:31:49;20.00;99.90
12811;DHT22;6470;47.654;7.896;2023-08-31T14:34:14;20.60;99.90
12811;DHT22;6470;47.654;7.896;2023-08-31T14:36:40;20.10;99.90
12811;DHT22;6470;47.654;7.896;2023-08-31T14:39:06;21.70;99.90
12811;DHT22;6470;47.654;7.896;2023-08-31T14:41:32;21.00;99.90
12811;DHT22;6470;47.654;7.896;2023-08-31T14:43:57;21.20;99.90
12811;DHT22;6470;47.654;7.896;2023-08-31T14:46:23;20.70;99.90
12811;DHT22;6470;47.654;7.896;2023-08-31T14:48:50;20.70;99.90
12811;DHT22;6470;47.654;7.896;2023-08-31T14:51:16;20.70;99.90
12811;DHT22;6470;47.654;7.896;2023-08-31T14:53:42;21.20;99.90
12811;DHT22;6470;47.654;7.896;2023-08-31T14:58:34;20.90;99.90
12811;DHT22;6470;47.654;7.896;2023-08-31T15:01:00;20.40;99.90
12811;DHT22;6470;47.654;7.896;2023-08-31T15:03:26;21.20;99.90
12811;DHT22;6470;47.654;7.896;2023-08-31T15:05:51;20.40;99.90
12811;DHT22;6470;47.654;7.896;2023-08-31T15:08:17;19.70;99.90
12811;DHT22;6470;47.654;7.896;2023-08-31T15:10:43;20.50;99.90
12811;DHT22;6470;47.654;7.896;2023-08-31T15:13:09;20.30;99.90
12811;DHT22;6470;47.654;7.896;2023-08-31T15:15:34;20.30;99.90
12811;DHT22;6470;47.654;7.896;2023-08-31T15:18:00;20.20;99.90
12811;DHT22;6470;47.654;7.896;2023-08-31T15:20:26;19.90;99.90
12811;DHT22;6470;47.654;7.896;2023-08-31T15:22:53;20.30;99.90
12811;DHT22;6470;47.654;7.896;2023-08-31T15:25:19;20.10;99.90
12811;DHT22;6470;47.654;7.896;2023-08-31T15:27:45;21.10;99.90
12811;DHT22;6470;47.654;7.896;2023-08-31T15:30:11;20.20;99.90
12811;DHT22;6470;47.654;7.896;2023-08-31T15:32:37;19.80;99.90
12811;DHT22;6470;47.654;7.896;2023-08-31T15:35:04;20.20;99.90
12811;DHT22;6470;47.654;7.896;2023-08-31T15:39:56;20.10;99.90
12811;DHT22;6470;47.654;7.896;2023-08-31T15:42:27;21.00;99.90
12811;DHT22;6470;47.654;7.896;2023-08-31T15:44:54;20.30;99.90
12811;DHT22;6470;47.654;7.896;2023-08-31T15:47:21;20.10;99.90
12811;DHT22;6470;47.654;7.896;2023-08-31T15:49:47;20.50;99.90
12811;DHT22;6470;47.654;7.896;2023-08-31T15:52:12;20.10;99.90
12811;DHT22;6470;47.654;7.896;2023-08-31T15:54:38;19.90;99.90
12811;DHT22;6470;47.654;7.896;2023-08-31T15:57:05;17.00;99.90
12811;DHT22;6470;47.654;7.896;2023-08-31T15:59:30;19.40;99.90
12811;DHT22;6470;47.654;7.896;2023-08-31T16:01:56;19.90;99.90
12811;DHT22;6470;47.654;7.896;2023-08-31T16:04:23;19.80;99.90
12811;DHT22;6470;47.654;7.896;2023-08-31T16:09:15;19.80;99.90
12811;DHT22;6470;47.654;7.896;2023-08-31T16:11:41;19.60;99.90
12811;DHT22;6470;47.654;7.896;2023-08-31T16:14:06;20.10;99.90
12811;DHT22;6470;47.654;7.896;2023-08-31T16:16:32;19.60;99.90
12811;DHT22;6470;47.654;7.896;2023-08-31T16:18:58;16.70;99.90
12811;DHT22;6470;47.654;7.896;2023-08-31T16:21:23;20.10;99.90
12811;DHT22;6470;47.654;7.896;2023-08-31T16:23:49;19.40;99.90
12811;DHT22;6470;47.654;7.896;2023-08-31T16:26:15;19.90;99.90
12811;DHT22;6470;47.654;7.896;2023-08-31T16:28:41;19.70;99.90
12811;DHT22;6470;47.654;7.896;2023-08-31T16:31:06;19.20;99.90
12811;DHT22;6470;47.654;7.896;2023-08-31T16:33:32;19.00;99.90
12811;DHT22;6470;47.654;7.896;2023-08-31T16:36:02;19.50;99.90
12811;DHT22;6470;47.654;7.896;2023-08-31T16:38:31;16.10;99.90
12811;DHT22;6470;47.654;7.896;2023-08-31T16:40:57;19.30;99.90
12811;DHT22;6470;47.654;7.896;2023-08-31T16:43:22;19.80;99.90
12811;DHT22;6470;47.654;7.896;2023-08-31T16:45:52;19.20;99.90
12811;DHT22;6470;47.654;7.896;2023-08-31T16:48:18;19.10;99.90